Select your language:
Online Marketing Agentur sucht Gipfelstürmer   Bad Gastein Ultraks   18th Kalahari Augrabies Extreme Marathon  
  AK:   Land:   Ø Geschw.:   AK-Wertung:   
Datum: 18.03.2017 Send Link
Veranstaltung: Coastal Trail Series - Sussex Ultra (GBR) Mehr Details zum Lauf.
Strecke: 33.7mi Landschaftslauf/Trail Ewige Bestenliste dieser Veranstaltung.
Finisher: 145 (117 M, 28 W) Mehrfach-Finisher.
Bestenlisten-tauglich: Nein
Ergebnisliste von: Link (Quelle zum Zeitpunkt der Erfassung.)
Erfassung durch: Robert Pöttger     23.03.2017 11:44
 
145 Suchergebnisse
Gesamt- Rang Leistung Originalname
Nachname, Vorname
Verein Nat. Jg. M/W Rang M/W AK AK Rang Ø Geschw. km/h alters- korrigierte Leistung
1 4:51:53 h   Fargus, Andrew   GBR  1978 M 1 M35  1 11.149 4:47:08 h
2 5:01:30 h   Ambrose, Anthony   GBR  1979 M 2 M35  2 10.793 4:57:57 h
3 5:03:26 h   Calvert, James   GBR    M 3 #NA  1 10.724 5:03:26 h
4 5:18:32 h   Morgan, Kristian   GBR  1977 M 4 M40  1 10.216 5:09:47 h
5 5:31:13 h   Erixon Sahlström, Linn   SWE  1976 W 1 W40  1 9.825 5:21:15 h
6 5:34:11 h   Johnson, Matthew   GBR  1970 M 5 M45  1 9.737 5:09:54 h
7 5:35:35 h   Gedai, Attila   GBR  1986 M 6 M23  1 9.697 5:35:35 h
8 5:36:08 h   Watson, Alistair   GBR  1984 M 7 M23  2 9.681 5:35:46 h
9 5:37:18 h   Volanthen, John   GBR  1971 M 8 M45  2 9.647 5:15:23 h
10 5:41:52 h   Melville, Toby   GBR  1970 M 9 M45  3 9.519 5:17:01 h
11 5:42:12 h   Johnsen, Joachim Prøsch   NOR  1972 M 10 M40  2 9.509 5:22:38 h
12 5:43:24 h   Abraham, Bobby   GBR  1968 M 11 M45  4 9.476 5:10:24 h
13 5:43:37 h   Troup, Anna   GBR  1970 W 2 W45  1 9.470 5:16:56 h
14 5:43:40 h   Staite, Richard   GBR  1969 M 12 M45  5 9.469 5:16:01 h
15 5:47:30 h   Lovatt, Hugh   GBR  1987 M 13 M23  3 9.364 5:47:30 h
16 5:48:18 h   Salter, Bruce   GBR  1976 M 14 M40  3 9.343 5:38:44 h
17 5:48:50 h   Moirano, Filippo   ITA  1976 M 15 M40  4 9.329 5:39:15 h
18 5:49:28 h   Slaughter, Mark   GBR    M 16 #NA  2 9.312 5:49:28 h
19 5:50:43 h   Holsether, Svein Tore   NOR  1972 M 17 M40  5 9.278 5:30:40 h
20 5:54:51 h   Dewhirst, George   GBR    M 18 #NA  3 9.170 5:54:51 h
21 5:54:56 h   Sjöholm, Michael   SWE  1995 M 19 MU23  1 9.168 5:54:56 h
22 5:54:58 h   Knight, Jason   GBR    M 20 #NA  4 9.167 5:54:58 h
23 5:55:36 h   Mills, Darryl   GBR  1982 M 21 M23  4 9.151 5:54:39 h
24 5:56:17 h   Knight, Ian   GBR  1968 M 22 M45  6 9.133 5:24:50 h
25 5:57:18 h   Olcot, Edward   GBR  1970 M 23 M45  7 9.107 5:31:20 h
26 6:01:00 h   Cook, Oliver   GBR    M 24 #NA  5 9.014 6:01:00 h
27 6:02:46 h   Owen, James   GBR  1981 M 25 M35  3 8.970 5:59:52 h
28 6:04:40 h   Chivoiu, Ciprian   ROU    M 26 #NA  6 8.923 6:04:40 h
29 6:06:12 h   Cooksey, Andrew   GBR  1961 M 27 M55  1 8.886 5:11:06 h
30 6:07:03 h   Wooddisse, Ian   GBR  1974 M 28 M40  6 8.866 5:48:56 h
31 6:07:23 h   Travis, Andrew   GBR  1971 M 29 M45  8 8.857 5:43:31 h
32 6:07:33 h   O'Dowd-Booth, Chris   GBR    M 30 #NA  7 8.853 6:07:33 h
33 6:07:36 h   Stoodley, Terry   GBR    M 31 #NA  8 8.852 6:07:36 h
34 6:07:44 h   Hellier, Alex   GBR    M 32 #NA  9 8.849 6:07:44 h
35 6:10:59 h   Rout, Aaron   GBR    M 33 #NA  10 8.772 6:10:59 h
36 6:12:33 h   Perks, Andy   GBR  1969 M 34 M45  9 8.735 5:42:34 h
37 6:14:19 h   Foster, Paul   GBR  1980 M 35 M35  4 8.693 6:11:20 h
38 6:14:28 h   Tucker, Kevin   GBR  1988 M 36 M23  5 8.690 6:14:28 h
39 6:16:06 h   Mathews, Steve   GBR  1972 M 37 M40  7 8.652 5:54:36 h
40 6:20:15 h   Coates, Paul   GBR  1963 M 38 M50  1 8.558 5:31:53 h
41 6:21:37 h   Wood, Tim   GBR    M 39 #NA  11 8.527 6:21:37 h
42 6:21:54 h   Ritchie, James   GBR    M 40 #NA  12 8.521 6:21:54 h
43 6:22:23 h   Rzadkosz, Wojciech   POL    M 41 #NA  13 8.510 6:22:23 h
44 6:23:16 h   Bosanquet, Oliver   GBR    M 42 #NA  14 8.490 6:23:16 h
45 6:23:37 h   Dus, Sergiy   GBR  1984 M 43 M23  6 8.483 6:23:33 h
46 6:24:05 h   Flanagan, Michael   GBR  1967 M 44 M50  2 8.472 5:44:11 h
47 6:26:05 h   Brice, Eric   FRA  1965 M 45 M50  3 8.428 5:43:00 h
48 6:26:10 h   Allchin, Simon   GBR    M 46 #NA  15 8.427 6:26:10 h
49 6:26:47 h   Abraham, Angus   GBR    M 47 #NA  16 8.413 6:26:47 h
50 6:27:33 h   Besancon, David   FRA  1967 M 48 M50  4 8.397 5:47:18 h
51 6:27:58 h   Kitson, Nicholas   GBR    M 49 #NA  17 8.388 6:27:58 h
52 6:31:11 h   Donaldson, Ryan   GBR  1983 M 50 M23  7 8.319 6:30:46 h
53 6:32:28 h   Annear, David   GBR    M 51 #NA  18 8.291 6:32:28 h
54 6:32:59 h   Bunker, William   GBR  1973 M 52 M40  8 8.280 6:13:35 h
55 6:33:09 h   Leeming, Alice   GBR    W 3 #NA  19 8.277 6:33:09 h
56 6:33:15 h   Eifler, Gunter   GBR    M 53 #NA  20 8.275 6:33:15 h
57 6:34:35 h   Costain, Michael   GBR    M 54 #NA  21 8.247 6:34:35 h
58 6:35:24 h   Williams, Bryn   GBR    M 55 #NA  22 8.230 6:35:24 h
59 6:36:38 h   Slater, Douglas   GBR  1970 M 56 M45  10 8.204 6:07:48 h
60 6:37:00 h   Lemasson, Isabelle   GBR    W 4 #NA  23 8.197 6:37:00 h
61 6:37:11 h   Martin, Thomas   GBR  1973 M 57 M40  9 8.193 6:17:34 h
62 6:37:55 h   King, Benjamin   GBR  1975 M 58 M40  10 8.178 6:24:19 h
63 6:38:11 h   Funnell, Jamie   GBR  1990 M 59 M23  8 8.172 6:38:11 h
64 6:38:27 h   Aguerre, Francois   FRA  1975 M 60 M40  11 8.167 6:24:50 h
65 6:39:20 h   Wu, Yulin   GBR    M 61 #NA  24 8.149 6:39:20 h
66 6:41:33 h   Whyman, Matt   GBR    M 62 #NA  25 8.104 6:41:33 h
67 6:42:18 h   Rogers, Jason   GBR  1972 M 63 M40  12 8.089 6:19:18 h
68 6:42:31 h   Burton, Martin   GBR  1974 M 64 M40  13 8.084 6:25:47 h
69 6:44:25 h   Munsey, Amelia   GBR    W 5 #NA  26 8.046 6:44:25 h
70 6:46:44 h   Wakefield, Russell   GBR  1976 M 65 M40  14 8.001 6:35:33 h
71 6:47:08 h   Moreton, Joe   GBR    M 66 #NA  27 7.993 6:47:08 h
72 6:47:10 h   Moreton, Thomas   GBR    M 67 #NA  28 7.992 6:47:10 h
73 6:47:34 h   Leith, Hannah   GBR  1990 W 6 W23  1 7.984 6:47:34 h
74 6:48:56 h   Ward, Nick   GBR    M 68 #NA  29 7.958 6:48:56 h
75 6:49:06 h   Cullinan, Harriet   GBR  1979 W 7 W35  1 7.954 6:43:08 h
76 6:52:29 h   Iron, Rosie   GBR    W 8 #NA  30 7.889 6:52:29 h
77 6:53:29 h   Leech, Christopher   GBR    M 69 #NA  31 7.870 6:53:29 h
78 6:54:13 h   Vann, Ian   GBR    M 70 #NA  32 7.856 6:54:13 h
79 6:55:44 h   McCourt, Michael   GBR    M 71 #NA  33 7.827 6:55:44 h
80 6:56:04 h   Lydiate, Joseph   GBR    M 72 #NA  34 7.821 6:56:04 h
81 6:57:27 h   Shareck, Martine   GBR    W 9 #NA  35 7.795 6:57:27 h
82 6:57:31 h   Mendez, Humberto   GBR    M 73 #NA  36 7.794 6:57:31 h
83 6:58:34 h   Puzio, Bartlomiej   GBR    M 74 #NA  37 7.774 6:58:34 h
84 6:59:14 h   Ogles, Chris   GBR    M 75 #NA  38 7.762 6:59:14 h
85 7:01:53 h   Bendtsen, Claus   GBR    M 76 #NA  39 7.713 7:01:53 h
86 7:01:54 h   McAlister, Mark   GBR    M 77 #NA  40 7.713 7:01:54 h
87 7:02:51 h   Hensel, Levi   GBR    M 78 #NA  41 7.696 7:02:51 h
88 7:03:22 h   Huddart, Andrew   GBR    M 79 #NA  42 7.686 7:03:22 h
89 7:03:27 h   Huddart, Rob   GBR    M 80 #NA  43 7.685 7:03:27 h
90 7:04:19 h   Sullivan, Andrea   GBR    W 10 #NA  44 7.669 7:04:19 h
91 7:04:40 h   Bullivant, Marina   GBR  1966 W 11 W50  1 7.663 6:08:52 h
92 7:09:13 h   James, Dominique   GBR    W 12 #NA  45 7.581 7:09:13 h
93 7:09:15 h   Law, Andrew   GBR  1978 M 81 M35  5 7.581 7:02:16 h
94 7:11:59 h   Ocelewicz, Lukasz   POL    M 82 #NA  46 7.533 7:11:59 h
95 7:13:55 h   Biddel, Hannah   GBR  1981 W 13 W35  2 7.499 7:10:43 h
96 7:14:14 h   Tompson, Lara   GBR    W 14 #NA  47 7.494 7:14:14 h
97 7:14:16 h   Tompson, Alan   GBR    M 83 #NA  48 7.493 7:14:16 h
98 7:16:50 h   Puzio, Waldemar   POL  1958 M 84 M55  2 7.449 6:04:17 h
99 7:18:04 h   Fogaros, Jason   USA  1976 M 85 M40  15 7.428 7:03:06 h
100 7:18:07 h   Vaughan, Richard   GBR  1984 M 86 M23  9 7.427 7:18:02 h
101 7:18:37 h   Ross, Sam   GBR    M 87 #NA  49 7.419 7:18:37 h
102 7:22:50 h   Templeton, Mark   GBR    M 88 #NA  50 7.348 7:22:50 h
103 7:25:00 h   Wakefield, Ilze   GBR  1980 W 15 W35  3 7.313 7:20:15 h
104 7:28:51 h   Smith, Andrew   GBR  1978 M 89 M35  6 7.250 7:21:33 h
105 7:29:58 h   Thapa, Sarad   GBR    M 90 #NA  51 7.232 7:29:58 h
106 7:30:40 h   Lambert, James   GBR  1978 M 91 M35  7 7.221 7:23:20 h
107 7:30:42 h   Milnes, Mark   GBR    M 92 #NA  52 7.220 7:30:42 h
108 7:30:51 h   Teaster, Buddy   USA  1964 M 93 M50  5 7.218 6:37:02 h
109 7:34:53 h   Dainty, Paul   GBR    M 94 #NA  53 7.154 7:34:53 h
110 7:35:23 h   Rhule, Des   GBR  1963 M 95 M50  6 7.146 6:37:28 h
111 7:35:34 h   Mizera, Joanna   GBR  1986 W 16 W23  2 7.143 7:35:34 h
112 7:35:35 h   Skokowski, Tomasz   POL  1982 M 96 M23  10 7.143 7:34:22 h
113 7:38:41 h   Duery, Darren   GBR    M 97 #NA  54 7.094 7:38:41 h
114 7:39:26 h   Mitchell, Fergus   GBR    M 98 #NA  55 7.083 7:39:26 h
115 7:42:30 h   Lelinski, Jaroslaw   GBR    M 99 #NA  56 7.036 7:42:30 h
116 7:44:00 h   Agnelli, George   GBR    M 100 #NA  57 7.013 7:44:00 h
117 7:51:09 h   Willcox, Katy   GBR  1981 W 17 W35  4 6.907 7:47:40 h
118 7:51:11 h   Willcox, Mike   GBR  1979 M 101 M35  8 6.906 7:45:38 h
119 7:51:13 h   Savings, Nikki   GBR  1983 W 18 W23  3 6.906 7:50:00 h
120 7:51:14 h   Duggan, Brian   GBR  1969 M 102 M45  11 6.905 7:09:38 h
121 7:51:17 h   Hamblin, Vicky   GBR  1975 W 19 W40  2 6.905 7:30:47 h
122 7:51:19 h   Hogan, Mike   GBR  1971 M 103 M45  12 6.904 7:20:41 h
123 7:57:52 h   Webster, Roger   GBR    M 104 #NA  58 6.810 7:57:52 h
124 7:57:59 h   Elms, Philip   GBR  1966 M 105 M50  7 6.808 7:08:20 h
125 7:58:20 h   Suenaga, Takuya (末永卓也)   JPN  1971 M 106 M45  13 6.803 7:27:15 h
126 8:02:48 h   Miller, Rebecca   SWE  1968 W 20 W45  2 6.740 7:15:18 h
127 8:02:50 h   Powney, Ben   GBR    M 107 #NA  59 6.740 8:02:50 h
128 8:05:21 h   Chisholm, Alasdair   GBR  1979 M 108 M35  9 6.705 7:59:38 h
129 8:08:05 h   Hogan, Heather   GBR    W 21 #NA  60 6.667 8:08:05 h
130 8:08:06 h   Dainty, Sandra   GBR    W 22 #NA  61 6.667 8:08:06 h
131 8:08:07 h   Corrigan, Ruth   GBR    W 23 #NA  62 6.667 8:08:07 h
132 8:09:32 h   Gage, Donna   GBR    W 24 #NA  63 6.647 8:09:32 h
133 8:11:52 h   Dcruz, Mithika   GBR    W 25 #NA  64 6.616 8:11:52 h
134 8:11:53 h   Nebhnani, Arvind   GBR    M 109 #NA  65 6.616 8:11:53 h
135 8:18:41 h   Rolfe, Emily   GBR  1999 W 26 WU23  1 6.525 8:06:43 h
136 8:18:45 h   Rolfe, Benjamin   GBR  1972 M 110 M40  16 6.524 7:50:14 h
137 8:18:49 h   Paxton, Margaret   CAN  1964 W 27 W50  2 6.524 7:07:48 h
138 8:22:49 h   de Maupeou, Gandalf   GBR    M 111 #NA  66 6.472 8:22:49 h
139 8:27:41 h   McKay, Denis   GBR  1949 M 112 M65  1 6.410 6:27:50 h
140 8:32:01 h   Kerr, Sarah   USA  1987 W 28 W23  4 6.355 8:32:01 h
141 8:32:03 h   Kerr, James   USA  1981 M 113 M35  10 6.355 8:29:30 h
142 8:35:11 h   da Costa, Shane   GBR    M 114 #NA  67 6.316 8:35:11 h
143 8:35:14 h   Lamb, Andrew   GBR  1969 M 115 M45  14 6.316 7:53:46 h
144 8:35:21 h   Lamb, Richard   GBR    M 116 #NA  68 6.314 8:35:21 h
145 8:40:05 h   Williams, Anthony   GBR    M 117 #NA  69 6.257 8:40:05 h